Airport View

Enter AWOS ICAO identifier for current METAR.

ex. KFNL

KMNH 211148Z AUTO 25007KT 10SM CLR 08/05 A3035 RMK AO2 LTG DSNT W

21 Aug 2018 12:16

Frequency: 134.375

Phone: 303-648-3479

Other Area AWOS: KFLY - KAFF - KAPA - KCOS

TAF KAPA 211130Z 2112/2212 31009KT P6SM FEW120 BKN150 FM211500 05006KT P6SM FEW060 BKN120 FM212000 08008KT P6SM FEW050 SCT080 BKN120 TEMPO 2121/2201 -TSRA BKN070CB FM220100 06010KT P6SM -SHRA SCT030 BKN050 TEMPO 2201/2205 -TSRA BKN030CB FM220800 12011KT P6SM SCT005 OVC015